logo dgac
Martes 28 de Mayo del 2024
Buscar por aerodromo o helipuerto
Ingrese nombre de aeródromo, localidad o designador OACI:

Aeródromo: Mocopulli (PUB) (SCPQ)

Ubicación: Dalcahue, X Región, Chile (42º 20' 25'' S, 73º 42' 57'' W) Ver ubicación en el mapa

Pistas

Luces
Orientación Dimensión Pendiente Superficie Resistencia APCH THR RWY PAPI
17/35 2000 x 45 m 0,70 ASPH 109 F/D/X/T Sí (3º)
Horas de operación HJ
Elevación 161 m / 528 ft
Otra Información Adm : D.G.A.C
Uso : PUB
Ubicado 6.5 km NW Dalcahue
TEL (065) 2772770 anexo ARO/MET 5206 CEL +56942882537
email : aro.mocopulli@dgac.gob.cl

Otra información ver AIP-Chile Volumen I AD 3.9-4.1-D
CCCM/FCCV Descargar CCCM/FCCV
andera de Chile
Mapa de Mocopulli (PUB) (SCPQ)

Último METAR

METAR SCPQ 280800Z AUTO 34009KT 310V010 9999 BKN012 08/07 Q1012

Último TAF

No hay tafs registrados para este aeródromo

Últimas fotos cámaras

Imagen aerodromo Mocopulli (PUB) (SCPQ) Norte tomada el 28-05-2024 08:15:09 Imagen aerodromo Mocopulli (PUB) (SCPQ) Sur tomada el 28-05-2024 08:14:42

Último NOTAM

W0898/24 NOTAMN Q)SCTZ/QWULW/IV/BO/AW/000/004/4218S07342W001 A)SCPQ B)2404221300 C)2406202200 D)DLY BTN 1300-2200 E)RPAS FLT SECT MOCOPULLI 3.0 KM NE OF MOCOPULLI AD ZONA ...D.... RDO 0.07NM WI: 421818.67S/0734232.54W INSTRUCTIONS: PUERTO MONTT RDR 119.5MHZ CHILOE TWR 118.4MHZ F)GND G)400FT AGL